Elkins, New Hampshire
Current Conditions -  °F | °C
As of 8:53 AM on Friday 28 Nov 2014 (Local Time) from KLEB Reporting Station
Overcast Overcast  
Wind Chill: 27°   Ceiling: 4300
Heat Index: 27°   Visibility: 10mi
Dew Point: 21°   Wind: 0mph
Humidity: 78%   Direction: NA
Pressure: 30.06"   Gusts: NA
Location:  43.42°N, 71.94°W
Report Text: KLEB 281353Z 00000KT 10SM OVC043 M03/M06 A3006 RMK AO2 SLP189 T10281061
Loading
Personal Weather Stations






























Interactive Weather Map New forecast layout! Learn more

10-Day Weather Forecast

Advertisements
Track Severe Weather on mobile